Time;durP1;ratioP1;P1;durP2;ratioP2;P2;SDS_P1;SDS_P2;PMS_P1;PMS_P2;Temp;Humidity;BMP_temperature;BMP_pressure;BME280_temperature;BME280_humidity;BME280_pressure;Samples;Min_cycle;Max_cycle;Signal;HPM_P1;HPM_P2
2021/10/26 00:01:31;;;;;;;433.67;407.67;;;;;;;;;;5008250;28;21031;-65
2021/10/26 00:03:58;;;;;;;434.83;409.83;;;;;;;;;;4994648;28;20950;-66
2021/10/26 00:06:25;;;;;;;409.43;385.93;;;;;;;;;;4998360;28;20469;-65
2021/10/26 00:08:56;;;;;;;350.83;331.03;;;;;;;;;;5013146;28;20837;-66
2021/10/26 00:11:23;;;;;;;312.27;294.07;;;;;;;;;;5007736;28;20478;-66
2021/10/26 00:13:50;;;;;;;273.80;257.40;;;;;;;;;;5041942;23;20502;-65
2021/10/26 00:16:17;;;;;;;247.93;232.63;;;;;;;;;;4989476;28;20466;-68
2021/10/26 00:18:44;;;;;;;238.97;223.67;;;;;;;;;;4993626;28;20984;-66
2021/10/26 00:21:11;;;;;;;226.13;210.97;;;;;;;;;;4993111;28;20439;-66
2021/10/26 00:23:38;;;;;;;220.53;205.50;;;;;;;;;;4993368;28;20482;-67
2021/10/26 00:26:07;;;;;;;214.77;199.90;;;;;;;;;;4992967;28;20447;-69
2021/10/26 00:28:34;;;;;;;207.27;193.03;;;;;;;;;;4992570;28;20841;-67
2021/10/26 00:31:02;;;;;;;207.60;193.50;;;;;;;;;;4993362;28;20486;-65
2021/10/26 00:33:29;;;;;;;202.43;188.20;;;;;;;;;;4991733;28;20482;-65
2021/10/26 00:35:56;;;;;;;210.80;196.27;;;;;;;;;;4990411;28;20473;-66
2021/10/26 00:38:24;;;;;;;204.97;190.77;;;;;;;;;;4993938;28;20450;-66
2021/10/26 00:40:51;;;;;;;196.03;182.33;;;;;;;;;;4992337;28;20985;-66
2021/10/26 00:43:19;;;;;;;207.17;193.37;;;;;;;;;;4993793;28;20481;-65
2021/10/26 00:45:46;;;;;;;189.80;176.17;;;;;;;;;;4991925;28;20473;-67
2021/10/26 00:48:14;;;;;;;191.90;178.40;;;;;;;;;;4993551;28;20453;-66
2021/10/26 00:50:41;;;;;;;187.83;173.93;;;;;;;;;;4988929;28;20501;-67
2021/10/26 00:53:08;;;;;;;191.87;178.13;;;;;;;;;;4973889;28;20456;-66
2021/10/26 00:55:35;;;;;;;193.47;180.30;;;;;;;;;;4975344;28;20460;-68
2021/10/26 00:58:02;;;;;;;190.57;177.37;;;;;;;;;;4993545;28;20478;-65
2021/10/26 01:00:31;;;;;;;184.50;171.50;;;;;;;;;;4992039;28;20938;-66
2021/10/26 01:02:58;;;;;;;185.10;171.90;;;;;;;;;;4992808;28;20481;-66
2021/10/26 01:05:26;;;;;;;181.50;168.80;;;;;;;;;;4992023;28;20457;-66
2021/10/26 01:07:53;;;;;;;178.33;165.87;;;;;;;;;;4990923;28;20557;-66
2021/10/26 01:10:20;;;;;;;184.73;172.23;;;;;;;;;;4993033;28;20487;-66
2021/10/26 01:12:47;;;;;;;185.80;172.97;;;;;;;;;;4991908;28;20501;-66
2021/10/26 01:15:15;;;;;;;200.80;187.47;;;;;;;;;;4991967;28;20466;-65
2021/10/26 01:17:44;;;;;;;204.00;190.70;;;;;;;;;;4991385;28;20477;-65
2021/10/26 01:20:12;;;;;;;207.50;193.77;;;;;;;;;;4992553;28;20450;-65
2021/10/26 01:22:40;;;;;;;219.83;206.13;;;;;;;;;;4992315;28;20486;-66
2021/10/26 01:25:08;;;;;;;216.23;202.30;;;;;;;;;;4992393;28;20938;-66
2021/10/26 01:27:35;;;;;;;221.10;206.97;;;;;;;;;;4990054;28;20481;-66
2021/10/26 01:30:02;;;;;;;233.90;219.80;;;;;;;;;;4987677;28;20920;-66
2021/10/26 01:32:29;;;;;;;230.93;216.83;;;;;;;;;;4991357;28;20518;-64
2021/10/26 01:34:56;;;;;;;231.30;216.43;;;;;;;;;;4991896;28;20473;-65
2021/10/26 01:37:25;;;;;;;237.67;223.00;;;;;;;;;;4992397;28;20446;-66
2021/10/26 01:39:52;;;;;;;247.87;232.57;;;;;;;;;;4991882;28;20835;-66
2021/10/26 01:42:21;;;;;;;241.63;226.67;;;;;;;;;;4992379;28;20497;-66
2021/10/26 01:44:49;;;;;;;253.80;238.43;;;;;;;;;;4991011;28;20910;-67
2021/10/26 01:47:16;;;;;;;252.17;236.60;;;;;;;;;;4992041;28;20513;-66
2021/10/26 01:49:43;;;;;;;263.30;247.10;;;;;;;;;;4991159;28;20488;-66
2021/10/26 01:52:10;;;;;;;255.13;239.50;;;;;;;;;;4990869;28;20581;-66
2021/10/26 01:54:40;;;;;;;262.60;246.67;;;;;;;;;;4991049;28;20466;-65
2021/10/26 01:57:07;;;;;;;263.80;247.90;;;;;;;;;;4991279;28;20577;-66
2021/10/26 01:59:35;;;;;;;266.13;249.50;;;;;;;;;;4991556;28;20474;-67
2021/10/26 02:02:02;;;;;;;259.20;242.90;;;;;;;;;;4992503;28;20447;-67
2021/10/26 02:04:30;;;;;;;268.00;251.40;;;;;;;;;;4991690;28;20807;-66
2021/10/26 02:06:57;;;;;;;268.93;252.23;;;;;;;;;;4990195;28;20476;-67
2021/10/26 02:09:24;;;;;;;262.17;245.97;;;;;;;;;;4992180;28;20979;-66
2021/10/26 02:11:53;;;;;;;267.47;250.87;;;;;;;;;;4991512;28;20518;-66
2021/10/26 02:14:20;;;;;;;283.13;265.70;;;;;;;;;;4990942;28;20987;-66
2021/10/26 02:16:47;;;;;;;271.43;254.50;;;;;;;;;;4972806;28;20447;-66
2021/10/26 02:19:14;;;;;;;276.70;259.40;;;;;;;;;;4982856;28;20470;-65
2021/10/26 02:21:42;;;;;;;270.17;253.27;;;;;;;;;;4973022;28;20479;-65
2021/10/26 02:24:09;;;;;;;278.90;261.77;;;;;;;;;;4986954;28;20498;-67
2021/10/26 02:26:36;;;;;;;275.77;258.77;;;;;;;;;;4992054;28;20451;-65
2021/10/26 02:29:06;;;;;;;281.23;263.13;;;;;;;;;;4988567;28;20485;-67
2021/10/26 02:31:33;;;;;;;281.37;263.67;;;;;;;;;;4988372;28;20487;-67
2021/10/26 02:34:00;;;;;;;291.80;273.53;;;;;;;;;;4991468;28;20475;-67
2021/10/26 02:36:27;;;;;;;273.70;255.90;;;;;;;;;;4990994;28;20466;-67
2021/10/26 02:38:54;;;;;;;290.43;271.83;;;;;;;;;;4990885;28;20477;-66
2021/10/26 02:41:21;;;;;;;279.67;261.47;;;;;;;;;;4992475;28;20442;-67
2021/10/26 02:43:48;;;;;;;301.83;282.97;;;;;;;;;;4992383;28;20493;-66
2021/10/26 02:46:17;;;;;;;267.97;250.03;;;;;;;;;;4992357;28;20509;-67
2021/10/26 02:48:47;;;;;;;257.37;240.17;;;;;;;;;;4993931;28;20470;-66
2021/10/26 02:51:14;;;;;;;271.87;253.87;;;;;;;;;;4992015;28;20471;-67
2021/10/26 02:53:41;;;;;;;274.20;256.13;;;;;;;;;;4990160;28;20486;-66
2021/10/26 02:56:09;;;;;;;273.33;255.23;;;;;;;;;;4990721;28;20835;-65
2021/10/26 02:58:36;;;;;;;268.93;251.03;;;;;;;;;;4992164;28;20469;-66
2021/10/26 03:01:03;;;;;;;263.07;245.10;;;;;;;;;;4995811;28;20447;-66
2021/10/26 03:03:31;;;;;;;249.50;232.23;;;;;;;;;;4994795;28;20560;-66
2021/10/26 03:05:58;;;;;;;273.00;254.87;;;;;;;;;;4995116;28;20455;-66
2021/10/26 03:08:26;;;;;;;253.77;236.57;;;;;;;;;;4994122;28;20965;-68
2021/10/26 03:10:53;;;;;;;266.80;249.10;;;;;;;;;;4995204;28;20478;-66
2021/10/26 03:13:20;;;;;;;257.17;239.57;;;;;;;;;;4994417;28;20498;-67
2021/10/26 03:15:47;;;;;;;255.47;237.97;;;;;;;;;;4993826;28;20843;-66
2021/10/26 03:18:14;;;;;;;268.73;250.77;;;;;;;;;;4994581;28;20466;-67
2021/10/26 03:20:43;;;;;;;273.80;255.80;;;;;;;;;;4994258;28;20972;-66
2021/10/26 03:23:11;;;;;;;283.93;265.90;;;;;;;;;;4994187;28;20497;-68
2021/10/26 03:25:38;;;;;;;253.37;235.67;;;;;;;;;;4994721;28;20959;-66
2021/10/26 03:28:05;;;;;;;239.83;222.60;;;;;;;;;;4993859;28;20474;-66
2021/10/26 03:30:32;;;;;;;242.07;224.63;;;;;;;;;;4994247;28;20482;-67
2021/10/26 03:32:59;;;;;;;242.73;225.47;;;;;;;;;;4993749;28;21031;-66
2021/10/26 03:35:26;;;;;;;252.60;235.00;;;;;;;;;;4994859;28;20503;-66
2021/10/26 03:37:55;;;;;;;240.93;223.50;;;;;;;;;;4993610;28;20512;-65
2021/10/26 03:40:22;;;;;;;266.97;248.93;;;;;;;;;;4993930;28;20497;-65
2021/10/26 03:42:49;;;;;;;252.97;235.60;;;;;;;;;;4993762;28;20831;-66
2021/10/26 03:45:16;;;;;;;245.20;228.27;;;;;;;;;;4994696;28;20558;-67
2021/10/26 03:47:45;;;;;;;247.63;230.10;;;;;;;;;;4993881;28;20473;-66
2021/10/26 03:50:13;;;;;;;241.47;224.30;;;;;;;;;;4993807;28;20994;-65
2021/10/26 03:52:40;;;;;;;231.67;215.20;;;;;;;;;;4993030;28;20493;-65
2021/10/26 03:55:09;;;;;;;225.37;208.80;;;;;;;;;;4994418;28;20458;-66
2021/10/26 03:57:36;;;;;;;226.90;209.80;;;;;;;;;;4992694;28;20466;-67
2021/10/26 04:00:04;;;;;;;244.23;226.97;;;;;;;;;;4993576;28;20473;-67
2021/10/26 04:02:32;;;;;;;228.57;211.57;;;;;;;;;;4994891;28;20525;-66
2021/10/26 04:05:02;;;;;;;229.10;212.33;;;;;;;;;;4974859;28;20452;-67
2021/10/26 04:07:31;;;;;;;219.97;203.47;;;;;;;;;;4989487;28;20557;-67
2021/10/26 04:10:02;;;;;;;223.17;207.00;;;;;;;;;;4994272;28;20458;-67
2021/10/26 04:12:30;;;;;;;204.47;189.20;;;;;;;;;;4993302;28;20502;-68
2021/10/26 04:14:58;;;;;;;214.43;198.13;;;;;;;;;;4992998;28;20477;-68
2021/10/26 04:17:26;;;;;;;178.93;164.93;;;;;;;;;;4993272;28;20984;-68
2021/10/26 04:19:54;;;;;;;190.80;176.53;;;;;;;;;;4993560;28;20454;-68
2021/10/26 04:22:22;;;;;;;191.47;176.83;;;;;;;;;;4994207;28;20534;-68
2021/10/26 04:24:50;;;;;;;198.73;183.27;;;;;;;;;;4994660;28;20973;-66
2021/10/26 04:27:17;;;;;;;198.97;183.53;;;;;;;;;;4993166;28;20471;-68
2021/10/26 04:29:46;;;;;;;189.83;175.03;;;;;;;;;;4983247;28;20487;-68
2021/10/26 04:32:14;;;;;;;213.87;198.77;;;;;;;;;;4982257;28;20490;-68
2021/10/26 04:34:42;;;;;;;194.43;179.17;;;;;;;;;;4991807;28;20467;-66
2021/10/26 04:37:10;;;;;;;195.37;179.90;;;;;;;;;;4993339;28;20843;-67
2021/10/26 04:39:38;;;;;;;196.50;180.73;;;;;;;;;;4992830;28;20689;-67
2021/10/26 04:42:07;;;;;;;199.20;183.13;;;;;;;;;;4993387;28;20447;-67
2021/10/26 04:44:34;;;;;;;208.53;192.27;;;;;;;;;;4992626;28;20889;-67
2021/10/26 04:47:03;;;;;;;212.33;195.67;;;;;;;;;;4983411;28;20474;-68
2021/10/26 04:49:30;;;;;;;208.97;192.83;;;;;;;;;;4990205;28;20467;-66
2021/10/26 04:51:57;;;;;;;199.47;183.57;;;;;;;;;;4992483;28;20497;-67
2021/10/26 04:54:24;;;;;;;207.63;191.27;;;;;;;;;;4983422;28;20477;-66
2021/10/26 04:56:51;;;;;;;230.10;213.50;;;;;;;;;;4992941;28;20473;-67
2021/10/26 04:59:18;;;;;;;333.13;307.70;;;;;;;;;;4992115;28;20481;-67
2021/10/26 05:01:45;;;;;;;376.23;349.03;;;;;;;;;;4993302;28;20447;-68
2021/10/26 05:04:14;;;;;;;264.57;246.03;;;;;;;;;;4990967;28;20490;-66
2021/10/26 05:06:41;;;;;;;224.93;207.20;;;;;;;;;;4988614;28;20844;-67
2021/10/26 05:09:08;;;;;;;229.77;211.67;;;;;;;;;;4993173;28;20461;-67
2021/10/26 05:11:35;;;;;;;262.67;244.40;;;;;;;;;;4991895;28;20490;-67
2021/10/26 05:14:02;;;;;;;228.00;210.83;;;;;;;;;;4992572;28;20842;-67
2021/10/26 05:16:29;;;;;;;217.23;199.60;;;;;;;;;;4991713;28;20466;-67
2021/10/26 05:18:59;;;;;;;218.87;201.47;;;;;;;;;;4993088;28;20962;-67
2021/10/26 05:21:27;;;;;;;213.00;195.70;;;;;;;;;;4990803;28;20466;-69
2021/10/26 05:23:55;;;;;;;219.10;202.50;;;;;;;;;;4992953;28;20469;-66
2021/10/26 05:26:22;;;;;;;214.23;197.50;;;;;;;;;;4991479;28;20466;-66
2021/10/26 05:28:50;;;;;;;218.83;202.60;;;;;;;;;;4992835;28;20938;-67
2021/10/26 05:31:17;;;;;;;209.50;193.03;;;;;;;;;;4990823;28;20577;-67
2021/10/26 05:33:45;;;;;;;197.90;181.80;;;;;;;;;;4992375;28;20475;-67
2021/10/26 05:36:12;;;;;;;208.20;191.80;;;;;;;;;;4988715;28;21257;-67
2021/10/26 05:38:41;;;;;;;193.27;177.43;;;;;;;;;;4991838;28;20473;-67
2021/10/26 05:41:10;;;;;;;186.03;171.03;;;;;;;;;;4992814;28;20446;-67
2021/10/26 05:43:37;;;;;;;196.73;181.53;;;;;;;;;;4991808;28;20486;-67
2021/10/26 05:46:05;;;;;;;220.27;204.07;;;;;;;;;;4991139;28;20494;-67
2021/10/26 05:48:32;;;;;;;200.60;185.00;;;;;;;;;;4991871;28;20471;-67
2021/10/26 05:51:01;;;;;;;208.33;192.83;;;;;;;;;;4990942;28;20490;-67
2021/10/26 05:53:28;;;;;;;214.43;198.23;;;;;;;;;;4992244;28;20898;-68
2021/10/26 05:55:56;;;;;;;216.73;200.53;;;;;;;;;;4990941;28;20457;-68
2021/10/26 05:58:23;;;;;;;219.10;202.00;;;;;;;;;;4992500;28;20837;-69
2021/10/26 06:00:51;;;;;;;223.50;206.30;;;;;;;;;;4991493;28;20454;-66
2021/10/26 06:03:18;;;;;;;245.30;228.33;;;;;;;;;;4991748;28;20482;-67
2021/10/26 06:05:45;;;;;;;233.60;216.30;;;;;;;;;;4989988;28;20470;-67
2021/10/26 06:08:12;;;;;;;235.60;217.47;;;;;;;;;;4991858;28;20466;-67
2021/10/26 06:10:42;;;;;;;154.40;141.77;;;;;;;;;;4991260;28;20470;-68
2021/10/26 06:13:12;;;;;;;142.90;131.20;;;;;;;;;;5016960;22;21144;-67
2021/10/26 06:15:39;;;;;;;159.23;147.00;;;;;;;;;;5000465;28;21035;-68
2021/10/26 06:18:07;;;;;;;165.30;152.20;;;;;;;;;;5002761;28;20454;-67
2021/10/26 06:20:34;;;;;;;228.63;211.20;;;;;;;;;;5011374;28;20957;-67
2021/10/26 06:23:01;;;;;;;310.63;287.60;;;;;;;;;;5010622;28;20485;-70
2021/10/26 06:25:29;;;;;;;385.37;355.60;;;;;;;;;;5012506;28;20623;-67
2021/10/26 06:27:56;;;;;;;545.63;509.03;;;;;;;;;;5012115;28;20469;-67
2021/10/26 06:30:25;;;;;;;562.67;523.73;;;;;;;;;;5014624;28;20514;-67
2021/10/26 06:32:52;;;;;;;629.60;586.40;;;;;;;;;;5014013;28;20492;-67
2021/10/26 06:35:19;;;;;;;655.67;612.37;;;;;;;;;;5011802;28;20461;-68
2021/10/26 06:37:46;;;;;;;622.80;580.60;;;;;;;;;;5013095;28;20465;-68
2021/10/26 06:40:14;;;;;;;628.37;587.67;;;;;;;;;;5014377;28;20956;-68
2021/10/26 06:42:41;;;;;;;560.13;521.93;;;;;;;;;;5014970;28;20457;-67
2021/10/26 06:45:08;;;;;;;580.80;544.33;;;;;;;;;;5015108;28;20462;-69
2021/10/26 06:47:37;;;;;;;536.10;500.63;;;;;;;;;;5015478;28;20463;-67
2021/10/26 06:50:05;;;;;;;493.20;459.90;;;;;;;;;;5014637;28;20956;-67
2021/10/26 06:52:32;;;;;;;451.53;420.43;;;;;;;;;;5014700;28;20485;-67
2021/10/26 06:55:00;;;;;;;445.70;414.73;;;;;;;;;;5015577;28;20488;-67
2021/10/26 06:57:29;;;;;;;452.07;422.60;;;;;;;;;;5013778;28;20473;-67
2021/10/26 06:59:57;;;;;;;421.73;394.23;;;;;;;;;;5015457;28;20984;-67
2021/10/26 07:02:24;;;;;;;405.37;378.23;;;;;;;;;;5010585;28;20524;-68
2021/10/26 07:04:54;;;;;;;412.33;385.90;;;;;;;;;;5009210;28;20999;-68
2021/10/26 07:07:21;;;;;;;424.53;398.23;;;;;;;;;;5014659;28;20473;-67
2021/10/26 07:09:48;;;;;;;453.53;426.73;;;;;;;;;;5015039;28;20552;-68
2021/10/26 07:12:15;;;;;;;398.40;372.70;;;;;;;;;;5013691;28;20477;-68
2021/10/26 07:14:42;;;;;;;412.47;388.47;;;;;;;;;;5014405;28;20485;-67
2021/10/26 07:17:09;;;;;;;407.93;383.73;;;;;;;;;;5014764;28;20520;-67
2021/10/26 07:19:36;;;;;;;402.83;379.97;;;;;;;;;;5013292;28;20468;-65
2021/10/26 07:22:05;;;;;;;402.50;380.57;;;;;;;;;;5014005;28;20811;-64
2021/10/26 07:24:32;;;;;;;411.23;389.03;;;;;;;;;;5015575;28;20473;-64
2021/10/26 07:27:00;;;;;;;436.33;414.43;;;;;;;;;;5014818;28;20445;-65
2021/10/26 07:29:27;;;;;;;398.83;377.93;;;;;;;;;;5015133;28;20541;-64
2021/10/26 07:31:55;;;;;;;393.30;371.67;;;;;;;;;;5014741;28;20867;-64
2021/10/26 07:34:23;;;;;;;374.57;354.13;;;;;;;;;;5014466;28;20477;-65
2021/10/26 07:36:51;;;;;;;392.40;372.30;;;;;;;;;;5014272;28;20460;-65
2021/10/26 07:39:32;;;;;;;406.13;385.43;;;;;;;;;;5014926;28;20652;-65
2021/10/26 07:41:59;;;;;;;454.13;432.07;;;;;;;;;;5014529;28;20453;-65
2021/10/26 07:44:27;;;;;;;379.40;360.50;;;;;;;;;;5013765;28;20474;-64
2021/10/26 07:46:56;;;;;;;374.23;355.30;;;;;;;;;;5014831;28;20453;-66
2021/10/26 07:49:23;;;;;;;416.83;392.57;;;;;;;;;;5011934;28;20529;-69
2021/10/26 07:51:51;;;;;;;415.53;389.93;;;;;;;;;;5014475;28;20503;-65
2021/10/26 07:54:19;;;;;;;434.57;408.77;;;;;;;;;;5012910;28;20497;-65
2021/10/26 07:56:47;;;;;;;438.30;411.93;;;;;;;;;;5015744;28;20452;-65
2021/10/26 07:59:14;;;;;;;444.87;420.20;;;;;;;;;;5014730;28;20461;-65
2021/10/26 08:01:42;;;;;;;411.17;386.17;;;;;;;;;;5014339;28;20445;-68
2021/10/26 08:04:09;;;;;;;399.57;376.00;;;;;;;;;;5014011;28;20469;-63
2021/10/26 08:06:36;;;;;;;439.40;415.27;;;;;;;;;;5014915;28;20537;-63
2021/10/26 08:09:03;;;;;;;407.40;383.83;;;;;;;;;;5014790;28;20954;-63
2021/10/26 08:11:32;;;;;;;401.23;377.63;;;;;;;;;;5013232;28;20461;-66
2021/10/26 08:14:00;;;;;;;390.23;367.87;;;;;;;;;;5013360;28;20547;-64
2021/10/26 08:16:28;;;;;;;392.63;370.17;;;;;;;;;;5012936;28;20526;-65
2021/10/26 08:18:55;;;;;;;377.23;354.73;;;;;;;;;;5014591;28;20452;-69
2021/10/26 08:21:22;;;;;;;380.77;358.50;;;;;;;;;;5013924;28;20485;-63
2021/10/26 08:23:50;;;;;;;377.90;357.00;;;;;;;;;;5014742;28;20984;-65
2021/10/26 08:26:20;;;;;;;382.73;361.20;;;;;;;;;;5013951;28;20975;-65
2021/10/26 08:28:51;;;;;;;373.10;351.13;;;;;;;;;;5015163;28;20477;-64
2021/10/26 08:31:23;;;;;;;357.63;337.13;;;;;;;;;;5011733;28;20474;-67
2021/10/26 08:34:08;;;;;;;397.40;373.37;;;;;;;;;;5012791;28;20564;-64
2021/10/26 08:36:36;;;;;;;402.80;377.30;;;;;;;;;;5011998;28;20519;-64
2021/10/26 08:39:03;;;;;;;395.50;372.57;;;;;;;;;;5013833;28;20476;-65
2021/10/26 08:41:31;;;;;;;401.70;377.40;;;;;;;;;;5013785;28;20468;-64
2021/10/26 08:43:58;;;;;;;388.13;365.97;;;;;;;;;;5010902;28;20465;-64
2021/10/26 08:46:27;;;;;;;384.63;362.20;;;;;;;;;;5013506;28;20445;-64
2021/10/26 08:48:54;;;;;;;401.13;377.63;;;;;;;;;;5014041;28;20457;-64
2021/10/26 08:51:24;;;;;;;412.10;388.47;;;;;;;;;;5011530;28;20493;-66
2021/10/26 08:53:53;;;;;;;407.13;384.43;;;;;;;;;;5009229;28;20493;-68
2021/10/26 08:56:21;;;;;;;400.57;377.33;;;;;;;;;;5012387;28;20453;-68
2021/10/26 08:58:48;;;;;;;390.50;368.57;;;;;;;;;;5013857;28;20458;-68
2021/10/26 09:01:16;;;;;;;378.43;358.03;;;;;;;;;;5013716;28;20528;-66
2021/10/26 09:03:44;;;;;;;353.27;334.93;;;;;;;;;;5014507;28;20487;-65
2021/10/26 09:06:11;;;;;;;368.87;350.07;;;;;;;;;;5013183;28;20953;-65
2021/10/26 09:08:39;;;;;;;339.53;322.10;;;;;;;;;;5013555;28;20452;-65
2021/10/26 09:11:20;;;;;;;369.33;351.07;;;;;;;;;;5013268;28;20463;-66
2021/10/26 09:16:41;;;;;;;393.43;375.20;;;;;;;;;;5087759;27;20528;-65
2021/10/26 09:19:09;;;;;;;368.17;350.60;;;;;;;;;;5085432;28;20458;-65
2021/10/26 09:21:36;;;;;;;380.63;363.53;;;;;;;;;;5076072;28;20446;-65
2021/10/26 09:24:08;;;;;;;375.17;357.67;;;;;;;;;;5068983;28;20856;-64
2021/10/26 09:26:47;;;;;;;368.27;351.80;;;;;;;;;;5069626;28;20446;-65
2021/10/26 09:29:14;;;;;;;349.77;333.70;;;;;;;;;;5069359;28;20954;-64
2021/10/26 09:31:43;;;;;;;365.90;348.80;;;;;;;;;;5070083;28;20447;-65
2021/10/26 09:34:12;;;;;;;370.10;354.03;;;;;;;;;;5069392;28;20478;-64
2021/10/26 09:36:40;;;;;;;346.73;331.07;;;;;;;;;;5068488;28;21069;-64
2021/10/26 09:39:12;;;;;;;341.87;326.60;;;;;;;;;;5068081;28;20458;-65
2021/10/26 09:42:01;;;;;;;330.87;316.37;;;;;;;;;;5067758;28;20443;-66
2021/10/26 09:44:29;;;;;;;414.70;387.00;;;;;;;;;;5067633;28;20575;-63
2021/10/26 09:46:58;;;;;;;510.00;472.70;;;;;;;;;;5068198;28;20447;-63
2021/10/26 09:49:26;;;;;;;519.67;481.03;;;;;;;;;;5067734;28;20447;-65
2021/10/26 09:51:53;;;;;;;528.30;488.93;;;;;;;;;;5067860;28;20443;-64
2021/10/26 09:54:21;;;;;;;522.73;485.27;;;;;;;;;;5066429;28;20967;-64
2021/10/26 09:57:03;;;;;;;530.67;491.80;;;;;;;;;;5068513;28;20446;-64
2021/10/26 09:59:30;;;;;;;517.97;480.50;;;;;;;;;;5069441;28;20451;-64
2021/10/26 10:01:59;;;;;;;506.20;470.50;;;;;;;;;;5073234;28;20436;-65
2021/10/26 10:04:27;;;;;;;522.10;484.70;;;;;;;;;;5068568;28;20981;-64
2021/10/26 10:06:54;;;;;;;496.13;461.23;;;;;;;;;;5077193;28;20447;-64
2021/10/26 10:09:22;;;;;;;411.50;384.60;;;;;;;;;;5074500;28;20439;-65
2021/10/26 10:12:04;;;;;;;479.27;444.83;;;;;;;;;;5060924;28;20954;-66
2021/10/26 10:14:31;;;;;;;454.90;422.37;;;;;;;;;;5074422;28;20499;-65
2021/10/26 10:17:01;;;;;;;461.90;428.97;;;;;;;;;;5079868;28;20806;-65
2021/10/26 10:19:29;;;;;;;473.70;439.73;;;;;;;;;;5067195;28;20592;-65
2021/10/26 10:21:56;;;;;;;479.37;445.03;;;;;;;;;;5067907;28;20451;-65
2021/10/26 10:24:24;;;;;;;485.47;451.07;;;;;;;;;;5067343;28;21011;-64
2021/10/26 10:26:52;;;;;;;481.87;447.47;;;;;;;;;;5061033;28;20462;-64
2021/10/26 10:29:21;;;;;;;489.87;455.37;;;;;;;;;;5053972;28;20448;-64
2021/10/26 10:31:50;;;;;;;483.00;449.43;;;;;;;;;;5053412;28;20536;-66
2021/10/26 10:34:22;;;;;;;493.00;462.20;;;;;;;;;;5054144;28;20890;-64
2021/10/26 10:36:52;;;;;;;554.23;513.23;;;;;;;;;;5054621;28;20549;-64
2021/10/26 10:39:24;;;;;;;536.73;504.77;;;;;;;;;;5054251;28;20501;-63
2021/10/26 10:41:52;;;;;;;535.53;504.77;;;;;;;;;;5054303;28;20447;-65
2021/10/26 10:44:39;;;;;;;516.73;485.93;;;;;;;;;;5053980;28;20468;-64
2021/10/26 10:47:41;;;;;;;546.13;515.37;;;;;;;;;;5052733;28;20451;-65
2021/10/26 10:50:26;;;;;;;539.50;509.60;;;;;;;;;;5050582;28;20565;-63
2021/10/26 10:53:13;;;;;;;509.23;478.43;;;;;;;;;;5054119;28;20448;-64
2021/10/26 10:55:42;;;;;;;489.10;457.30;;;;;;;;;;5053297;28;20494;-64
2021/10/26 10:58:24;;;;;;;447.03;416.20;;;;;;;;;;5053895;28;20452;-64
2021/10/26 11:00:53;;;;;;;445.43;414.43;;;;;;;;;;5053377;28;20452;-65
2021/10/26 11:03:30;;;;;;;429.00;401.10;;;;;;;;;;5065792;28;20467;-64
2021/10/26 11:05:57;;;;;;;434.07;410.87;;;;;;;;;;5058178;28;20440;-65
2021/10/26 11:08:39;;;;;;;417.70;397.50;;;;;;;;;;5054820;28;20448;-64
2021/10/26 11:11:07;;;;;;;365.70;348.97;;;;;;;;;;5053454;28;20776;-64
2021/10/26 11:13:35;;;;;;;378.17;360.57;;;;;;;;;;5053617;28;20476;-64
2021/10/26 11:16:05;;;;;;;406.13;385.83;;;;;;;;;;5051845;28;20483;-64
2021/10/26 11:18:39;;;;;;;396.53;377.03;;;;;;;;;;5053368;28;20947;-65
2021/10/26 11:21:07;;;;;;;339.40;325.20;;;;;;;;;;5053225;28;20459;-64
2021/10/26 11:23:39;;;;;;;254.40;243.60;;;;;;;;;;5053697;28;20479;-64
2021/10/26 11:26:09;;;;;;;150.90;143.57;;;;;;;;;;5053326;28;20444;-65
2021/10/26 11:28:49;;;;;;;114.30;108.80;;;;;;;;;;5053578;28;20455;-65
2021/10/26 11:31:23;;;;;;;96.10;91.03;;;;;;;;;;5053482;28;20965;-65
2021/10/26 11:33:54;;;;;;;64.70;60.83;;;;;;;;;;5053141;28;21014;-65
2021/10/26 11:36:21;;;;;;;96.70;91.57;;;;;;;;;;5052998;28;20484;-65
2021/10/26 11:38:51;;;;;;;70.47;66.37;;;;;;;;;;5052896;28;20826;-65
2021/10/26 11:41:24;;;;;;;76.13;71.73;;;;;;;;;;5053192;28;20476;-65
2021/10/26 11:43:52;;;;;;;111.37;105.87;;;;;;;;;;5052934;28;20472;-65
2021/10/26 11:46:21;;;;;;;149.83;142.53;;;;;;;;;;5053139;28;20463;-66
2021/10/26 11:48:49;;;;;;;235.17;224.50;;;;;;;;;;5052413;28;20456;-65
2021/10/26 11:51:23;;;;;;;295.00;282.07;;;;;;;;;;5052483;28;20468;-66
2021/10/26 11:53:51;;;;;;;342.13;326.60;;;;;;;;;;5052337;28;20478;-65
2021/10/26 11:56:20;;;;;;;358.33;342.03;;;;;;;;;;5051746;28;20506;-65
2021/10/26 11:58:54;;;;;;;363.43;346.23;;;;;;;;;;5052738;28;20456;-65
2021/10/26 12:01:23;;;;;;;362.47;346.03;;;;;;;;;;5051462;28;20463;-65
2021/10/26 12:03:50;;;;;;;357.30;339.53;;;;;;;;;;5052393;28;20486;-65
2021/10/26 12:06:29;;;;;;;404.10;385.10;;;;;;;;;;5055852;28;20938;-65
2021/10/26 12:08:57;;;;;;;430.00;409.30;;;;;;;;;;5060308;28;20452;-65
2021/10/26 12:11:30;;;;;;;386.43;365.43;;;;;;;;;;5067696;28;20454;-64
2021/10/26 12:14:15;;;;;;;407.83;386.63;;;;;;;;;;5071405;28;20916;-65
2021/10/26 12:16:43;;;;;;;406.63;386.47;;;;;;;;;;5058295;28;20478;-64
2021/10/26 12:19:10;;;;;;;404.10;382.70;;;;;;;;;;5071977;28;20542;-65
2021/10/26 12:21:52;;;;;;;423.83;403.07;;;;;;;;;;5072178;28;20882;-65
2021/10/26 12:24:23;;;;;;;404.77;383.40;;;;;;;;;;5070267;28;20555;-65
2021/10/26 12:27:00;;;;;;;390.90;368.90;;;;;;;;;;5046807;28;20824;-65
2021/10/26 12:29:29;;;;;;;403.43;381.93;;;;;;;;;;5035566;28;21045;-65
2021/10/26 12:31:56;;;;;;;399.20;377.10;;;;;;;;;;5052058;28;20895;-65
2021/10/26 12:34:23;;;;;;;407.23;384.67;;;;;;;;;;5052367;28;20478;-65
2021/10/26 12:36:52;;;;;;;440.23;415.03;;;;;;;;;;5050673;28;20856;-65
2021/10/26 12:39:24;;;;;;;438.77;414.30;;;;;;;;;;5054745;22;20504;-67
2021/10/26 12:41:52;;;;;;;435.03;410.50;;;;;;;;;;5032266;28;20460;-64
2021/10/26 12:44:23;;;;;;;432.77;407.83;;;;;;;;;;5032770;28;20457;-68
2021/10/26 12:47:03;;;;;;;434.77;410.07;;;;;;;;;;5021285;28;20453;-65
2021/10/26 12:49:36;;;;;;;417.80;392.77;;;;;;;;;;4995517;28;20482;-64
2021/10/26 12:52:12;;;;;;;441.43;414.93;;;;;;;;;;4992823;28;20445;-66
2021/10/26 12:54:39;;;;;;;429.50;403.90;;;;;;;;;;4993563;28;20481;-66
2021/10/26 12:57:06;;;;;;;422.37;397.10;;;;;;;;;;4992107;28;21026;-64
2021/10/26 12:59:38;;;;;;;400.50;375.60;;;;;;;;;;4998995;28;20480;-64
2021/10/26 13:02:06;;;;;;;417.73;392.10;;;;;;;;;;5011803;28;20838;-64
2021/10/26 13:04:35;;;;;;;403.33;378.33;;;;;;;;;;5005319;28;20454;-68
2021/10/26 13:07:03;;;;;;;408.10;382.87;;;;;;;;;;5003305;28;20454;-64
2021/10/26 13:09:35;;;;;;;408.33;382.33;;;;;;;;;;4992594;28;20474;-64
2021/10/26 13:12:02;;;;;;;408.80;383.60;;;;;;;;;;4992484;28;20457;-64
2021/10/26 13:14:37;;;;;;;425.27;398.53;;;;;;;;;;5009991;28;20461;-66
2021/10/26 13:17:22;;;;;;;432.40;405.20;;;;;;;;;;5009486;28;20489;-64
2021/10/26 13:19:49;;;;;;;424.17;397.20;;;;;;;;;;4991931;28;20453;-64
2021/10/26 13:22:16;;;;;;;445.37;418.57;;;;;;;;;;4992036;28;20453;-66
2021/10/26 13:24:44;;;;;;;465.07;436.17;;;;;;;;;;4992772;28;20455;-64
2021/10/26 13:27:12;;;;;;;469.40;439.97;;;;;;;;;;4992337;28;20493;-64
2021/10/26 13:29:42;;;;;;;463.70;435.13;;;;;;;;;;4995178;28;20497;-64
2021/10/26 13:32:17;;;;;;;474.60;444.83;;;;;;;;;;4992486;28;20453;-64
2021/10/26 13:34:44;;;;;;;490.70;459.90;;;;;;;;;;4992000;28;20493;-66
2021/10/26 13:37:12;;;;;;;491.40;459.17;;;;;;;;;;4992338;28;20489;-64
2021/10/26 13:39:39;;;;;;;497.33;465.13;;;;;;;;;;5008450;28;20485;-65
2021/10/26 13:42:06;;;;;;;492.43;459.50;;;;;;;;;;5012119;28;20825;-66
2021/10/26 13:44:33;;;;;;;510.10;480.30;;;;;;;;;;5009923;28;20818;-65
2021/10/26 13:47:02;;;;;;;500.90;470.90;;;;;;;;;;5003999;28;20457;-68
2021/10/26 13:49:29;;;;;;;500.57;469.43;;;;;;;;;;4993026;28;20467;-65
2021/10/26 13:51:56;;;;;;;496.10;465.70;;;;;;;;;;4992248;28;20455;-64
2021/10/26 13:54:24;;;;;;;505.67;472.37;;;;;;;;;;5002432;28;20839;-65
2021/10/26 13:56:52;;;;;;;507.30;474.37;;;;;;;;;;4991702;28;20541;-64
2021/10/26 13:59:19;;;;;;;496.90;463.60;;;;;;;;;;4993077;28;20858;-67
2021/10/26 14:01:47;;;;;;;503.40;470.40;;;;;;;;;;5011192;28;20827;-64
2021/10/26 14:04:16;;;;;;;493.90;461.50;;;;;;;;;;5014495;28;20544;-64
2021/10/26 14:06:44;;;;;;;507.13;474.30;;;;;;;;;;5013749;28;20441;-65